Time,TemperatureF,DewpointF,PressureIn,WindDirection,WindDirectionDegrees,WindSpeedMPH,WindSpeedGustMPH,Humidity,HourlyPrecipIn,Conditions,Clouds,dailyrainin,SoftwareType,DateUTC
2013-02-12 00:04:00,31.5,28.0,29.20,NNW,345,0.0,0.0,87,0.00,CLR,CLR,0.00,WeatherDisplay:10.37,2013-02-12 05:04:00,
2013-02-12 00:09:00,31.5,28.0,29.20,NNW,345,3.0,4.0,87,0.00,CLR,CLR,0.00,WeatherDisplay:10.37,2013-02-12 05:09:00,
2013-02-12 00:14:00,31.5,28.0,29.20,NNW,345,2.0,4.0,87,0.00,CLR,CLR,0.00,WeatherDisplay:10.37,2013-02-12 05:14:00,
2013-02-12 00:19:00,31.5,28.0,29.20,NNW,345,2.0,4.0,87,0.00,CLR,CLR,0.00,WeatherDisplay:10.37,2013-02-12 05:19:00,
2013-02-12 00:24:00,31.5,28.0,29.20,NNW,345,0.0,3.0,87,0.00,CLR,CLR,0.00,WeatherDisplay:10.37,2013-02-12 05:24:00,
2013-02-12 00:29:00,31.6,28.2,29.20,NNW,345,5.0,5.0,87,0.00,CLR,CLR,0.00,WeatherDisplay:10.37,2013-02-12 05:29:00,
2013-02-12 00:34:00,31.6,28.2,29.20,NNW,345,3.0,6.0,87,0.00,CLR,CLR,0.00,WeatherDisplay:10.37,2013-02-12 05:34:00,
2013-02-12 00:39:00,31.6,28.2,29.20,NNW,345,5.0,6.0,87,0.00,CLR,CLR,0.00,WeatherDisplay:10.37,2013-02-12 05:39:00,
2013-02-12 00:49:00,31.8,28.4,29.20,NNW,345,0.0,3.0,87,0.00,CLR,CLR,0.00,WeatherDisplay:10.37,2013-02-12 05:49:00,
2013-02-12 00:54:00,31.6,28.2,29.20,NNW,345,0.0,0.0,87,0.00,CLR,CLR,0.00,WeatherDisplay:10.37,2013-02-12 05:54:00,
2013-02-12 00:59:00,31.6,28.2,29.20,NNW,345,0.0,0.0,87,0.00,CLR,CLR,0.00,WeatherDisplay:10.37,2013-02-12 05:59:00,
2013-02-12 01:04:00,31.8,28.4,29.20,NNW,345,0.0,0.0,87,0.00,CLR,CLR,0.00,WeatherDisplay:10.37,2013-02-12 06:04:00,
2013-02-12 01:09:00,31.8,28.4,29.20,NNW,345,0.0,0.0,87,0.00,CLR,CLR,0.00,WeatherDisplay:10.37,2013-02-12 06:09:00,
2013-02-12 01:19:00,32.0,28.6,29.18,NNW,345,0.0,4.0,87,0.00,CLR,CLR,0.00,WeatherDisplay:10.37,2013-02-12 06:19:00,
2013-02-12 01:29:00,32.1,28.7,29.18,NNW,345,0.0,0.0,87,0.00,CLR,CLR,0.00,WeatherDisplay:10.37,2013-02-12 06:29:00,
2013-02-12 01:39:00,32.0,28.6,29.18,NNW,345,2.0,3.0,87,0.00,CLR,CLR,0.00,WeatherDisplay:10.37,2013-02-12 06:39:00,
2013-02-12 01:49:00,32.1,28.7,29.18,NNW,345,0.0,0.0,87,0.00,CLR,CLR,0.00,WeatherDisplay:10.37,2013-02-12 06:49:00,
2013-02-12 01:59:00,32.2,28.7,29.18,NNW,345,0.0,0.0,87,0.00,CLR,CLR,0.00,WeatherDisplay:10.37,2013-02-12 06:59:00,
2013-02-12 02:04:00,32.4,28.9,29.18,NNW,345,0.0,0.0,87,0.00,CLR,CLR,0.00,WeatherDisplay:10.37,2013-02-12 07:04:00,
2013-02-12 02:09:00,32.4,28.9,29.18,NNW,345,0.0,0.0,87,0.00,CLR,CLR,0.00,WeatherDisplay:10.37,2013-02-12 07:09:00,
2013-02-12 02:19:00,32.4,28.9,29.18,NNW,345,0.0,0.0,87,0.00,CLR,CLR,0.00,WeatherDisplay:10.37,2013-02-12 07:19:00,
2013-02-12 02:29:00,32.4,28.9,29.18,NNW,345,0.0,0.0,87,0.00,CLR,CLR,0.00,WeatherDisplay:10.37,2013-02-12 07:29:00,
2013-02-12 02:39:00,32.4,28.9,29.18,NNW,345,0.0,0.0,87,0.00,CLR,CLR,0.00,WeatherDisplay:10.37,2013-02-12 07:39:00,
2013-02-12 02:49:00,32.2,28.7,29.18,NNW,345,1.0,4.0,87,0.00,CLR,CLR,0.00,WeatherDisplay:10.37,2013-02-12 07:49:00,
2013-02-12 02:59:00,32.2,28.7,29.18,NNW,345,0.0,0.0,87,0.00,CLR,CLR,0.00,WeatherDisplay:10.37,2013-02-12 07:59:00,
2013-02-12 03:04:00,32.4,28.9,29.18,NNW,345,0.0,3.0,87,0.00,CLR,CLR,0.00,WeatherDisplay:10.37,2013-02-12 08:04:00,
2013-02-12 03:09:00,32.4,28.9,29.18,NNW,345,0.0,0.0,87,0.00,CLR,CLR,0.00,WeatherDisplay:10.37,2013-02-12 08:09:00,
2013-02-12 03:19:00,32.4,28.9,29.18,NNW,345,2.0,4.0,87,0.00,CLR,CLR,0.00,WeatherDisplay:10.37,2013-02-12 08:19:00,
2013-02-12 03:29:00,32.4,28.9,29.18,NNW,345,2.0,4.0,87,0.00,CLR,CLR,0.00,WeatherDisplay:10.37,2013-02-12 08:29:00,
2013-02-12 03:39:00,32.5,29.1,29.18,NNW,345,3.0,6.0,87,0.00,CLR,CLR,0.00,WeatherDisplay:10.37,2013-02-12 08:39:00,
2013-02-12 03:49:00,32.5,29.4,29.18,NNW,345,0.0,4.0,88,0.00,CLR,CLR,0.00,WeatherDisplay:10.37,2013-02-12 08:49:00,
2013-02-12 03:59:00,32.4,29.2,29.18,NNW,345,0.0,0.0,88,0.00,CLR,CLR,0.00,WeatherDisplay:10.37,2013-02-12 08:59:00,
2013-02-12 04:04:00,32.4,28.9,29.18,NNW,345,0.0,0.0,87,0.00,CLR,CLR,0.00,WeatherDisplay:10.37,2013-02-12 09:04:00,
2013-02-12 04:09:00,32.2,28.7,29.18,NNW,345,0.0,0.0,87,0.00,CLR,CLR,0.00,WeatherDisplay:10.37,2013-02-12 09:09:00,
2013-02-12 04:19:00,31.8,28.4,29.15,NNW,345,0.0,0.0,87,0.00,CLR,CLR,0.00,WeatherDisplay:10.37,2013-02-12 09:19:00,
2013-02-12 04:29:00,31.2,27.8,29.15,NNW,345,0.0,0.0,87,0.00,CLR,CLR,0.00,WeatherDisplay:10.37,2013-02-12 09:29:00,
2013-02-12 04:39:00,30.5,27.1,29.18,NNW,345,0.0,0.0,87,0.00,CLR,CLR,0.00,WeatherDisplay:10.37,2013-02-12 09:39:00,
2013-02-12 04:49:00,29.9,26.2,29.18,NNW,345,0.0,0.0,86,0.00,CLR,CLR,0.00,WeatherDisplay:10.37,2013-02-12 09:49:00,
2013-02-12 04:59:00,29.7,26.0,29.18,NNW,345,0.0,0.0,86,0.00,CLR,CLR,0.00,WeatherDisplay:10.37,2013-02-12 09:59:00,
2013-02-12 05:04:00,29.8,26.4,29.18,NNW,345,3.0,5.0,87,0.00,CLR,CLR,0.00,WeatherDisplay:10.37,2013-02-12 10:04:00,
2013-02-12 05:09:00,30.4,27.0,29.18,NNW,345,3.0,6.0,87,0.00,CLR,CLR,0.00,WeatherDisplay:10.37,2013-02-12 10:09:00,
2013-02-12 05:19:00,31.5,28.3,29.18,NNW,345,2.0,4.0,88,0.00,CLR,CLR,0.00,WeatherDisplay:10.37,2013-02-12 10:19:00,
2013-02-12 05:29:00,31.8,28.7,29.18,NNW,345,0.0,3.0,88,0.00,CLR,CLR,0.00,WeatherDisplay:10.37,2013-02-12 10:29:00,
2013-02-12 05:39:00,31.6,28.5,29.18,NNW,345,0.0,0.0,88,0.00,CLR,CLR,0.00,WeatherDisplay:10.37,2013-02-12 10:39:00,
2013-02-12 05:48:00,31.5,28.3,29.18,NNW,345,0.0,0.0,88,0.00,CLR,CLR,0.00,WeatherDisplay:10.37,2013-02-12 10:48:00,
2013-02-12 05:58:00,31.6,28.5,29.18,NNW,345,0.0,3.0,88,0.00,CLR,CLR,0.00,WeatherDisplay:10.37,2013-02-12 10:58:00,
2013-02-12 06:03:00,31.6,28.5,29.18,NNW,345,0.0,0.0,88,0.00,CLR,CLR,0.00,WeatherDisplay:10.37,2013-02-12 11:03:00,
2013-02-12 06:08:00,31.6,28.8,29.18,NNW,345,0.0,0.0,89,0.00,CLR,CLR,0.00,WeatherDisplay:10.37,2013-02-12 11:08:00,
2013-02-12 06:18:00,31.5,28.3,29.18,NNW,345,0.0,0.0,88,0.00,CLR,CLR,0.00,WeatherDisplay:10.37,2013-02-12 11:18:00,
2013-02-12 06:28:00,31.1,28.2,29.18,NNW,345,0.0,3.0,89,0.00,CLR,CLR,0.00,WeatherDisplay:10.37,2013-02-12 11:28:00,
2013-02-12 06:38:00,30.7,27.9,29.18,NNW,345,0.0,3.0,89,0.00,CLR,CLR,0.00,WeatherDisplay:10.37,2013-02-12 11:38:00,
2013-02-12 06:48:00,30.4,27.3,29.18,NNW,345,0.0,0.0,88,0.00,CLR,CLR,0.00,WeatherDisplay:10.37,2013-02-12 11:48:00,
2013-02-12 06:58:00,30.2,27.1,29.18,NNW,345,0.0,0.0,88,0.00,CLR,CLR,0.00,WeatherDisplay:10.37,2013-02-12 11:58:00,
2013-02-12 07:03:00,30.0,26.9,29.20,NNW,345,0.0,0.0,88,0.00,CLR,CLR,0.00,WeatherDisplay:10.37,2013-02-12 12:03:00,
2013-02-12 07:08:00,30.0,26.9,29.20,NNW,345,0.0,0.0,88,0.00,CLR,CLR,0.00,WeatherDisplay:10.37,2013-02-12 12:08:00,
2013-02-12 07:18:00,30.0,26.9,29.20,NNW,345,0.0,0.0,88,0.00,CLR,CLR,0.00,WeatherDisplay:10.37,2013-02-12 12:18:00,
2013-02-12 07:28:00,30.2,27.1,29.20,NNW,345,0.0,0.0,88,0.00,CLR,CLR,0.00,WeatherDisplay:10.37,2013-02-12 12:28:00,
2013-02-12 07:38:00,30.4,27.3,29.20,NNW,345,0.0,0.0,88,0.00,CLR,CLR,0.00,WeatherDisplay:10.37,2013-02-12 12:38:00,
2013-02-12 07:48:00,30.6,27.7,29.20,NNW,345,0.0,0.0,89,0.00,CLR,CLR,0.00,WeatherDisplay:10.37,2013-02-12 12:48:00,
2013-02-12 07:58:00,30.9,28.1,29.20,NNW,345,0.0,0.0,89,0.00,CLR,CLR,0.00,WeatherDisplay:10.37,2013-02-12 12:58:00,
2013-02-12 08:03:00,31.1,28.2,29.20,NNW,345,0.0,0.0,89,0.00,CLR,CLR,0.00,WeatherDisplay:10.37,2013-02-12 13:03:00,
2013-02-12 08:08:00,31.1,28.2,29.20,NNW,345,0.0,0.0,89,0.00,CLR,CLR,0.00,WeatherDisplay:10.37,2013-02-12 13:08:00,
2013-02-12 08:18:00,31.8,28.9,29.20,NNW,345,0.0,0.0,89,0.00,CLR,CLR,0.00,WeatherDisplay:10.37,2013-02-12 13:18:00,
2013-02-12 08:28:00,32.9,30.0,29.20,NNW,345,0.0,3.0,89,0.00,CLR,CLR,0.00,WeatherDisplay:10.37,2013-02-12 13:28:00,
2013-02-12 08:33:00,33.6,30.7,29.20,NNW,345,0.0,0.0,89,0.00,CLR,CLR,0.00,WeatherDisplay:10.37,2013-02-12 13:33:00,
2013-02-12 08:38:00,34.3,31.7,29.20,NNW,345,0.0,4.0,90,0.00,CLR,CLR,0.00,WeatherDisplay:10.37,2013-02-12 13:38:00,
2013-02-12 08:48:00,35.1,32.5,29.20,NNW,345,0.0,4.0,90,0.00,CLR,CLR,0.00,WeatherDisplay:10.37,2013-02-12 13:48:00,
2013-02-12 08:58:00,35.9,33.6,29.20,NNW,345,0.0,2.0,91,0.00,CLR,CLR,0.00,WeatherDisplay:10.37,2013-02-12 13:58:00,
2013-02-12 09:03:00,36.1,33.8,29.20,NNW,345,0.0,0.0,91,0.00,CLR,CLR,0.00,WeatherDisplay:10.37,2013-02-12 14:03:00,
2013-02-12 09:08:00,36.3,33.9,29.20,NNW,345,0.0,0.0,91,0.00,CLR,CLR,0.00,WeatherDisplay:10.37,2013-02-12 14:08:00,
2013-02-12 09:18:00,36.9,34.5,29.20,North,351,0.0,0.0,91,0.00,CLR,CLR,0.00,WeatherDisplay:10.37,2013-02-12 14:18:00,
2013-02-12 09:23:00,37.2,34.8,29.20,ENE,78,0.0,3.0,91,0.00,CLR,CLR,0.00,WeatherDisplay:10.37,2013-02-12 14:23:00,
2013-02-12 09:28:00,37.4,35.0,29.20,SSE,157,0.0,4.0,91,0.00,CLR,CLR,0.00,WeatherDisplay:10.37,2013-02-12 14:28:00,
2013-02-12 09:38:00,37.9,35.5,29.20,South,170,0.0,0.0,91,0.00,CLR,CLR,0.00,WeatherDisplay:10.37,2013-02-12 14:38:00,
2013-02-12 09:48:00,38.5,36.1,29.20,SSE,166,0.0,0.0,91,0.00,CLR,CLR,0.00,WeatherDisplay:10.37,2013-02-12 14:48:00,
2013-02-12 09:58:00,38.8,36.4,29.20,South,177,1.0,4.0,91,0.00,CLR,CLR,0.00,WeatherDisplay:10.37,2013-02-12 14:58:00,
2013-02-12 10:03:00,39.1,36.7,29.20,SSW,203,0.0,4.0,91,0.00,CLR,CLR,0.00,WeatherDisplay:10.37,2013-02-12 15:03:00,
2013-02-12 10:08:00,39.2,36.8,29.20,SSW,202,2.0,4.0,91,0.00,CLR,CLR,0.00,WeatherDisplay:10.37,2013-02-12 15:08:00,
2013-02-12 10:18:00,39.7,37.3,29.20,SW,217,0.0,3.0,91,0.00,CLR,CLR,0.00,WeatherDisplay:10.37,2013-02-12 15:18:00,
2013-02-12 10:28:00,40.3,37.9,29.20,SSW,208,5.0,6.0,91,0.00,CLR,CLR,0.00,WeatherDisplay:10.37,2013-02-12 15:28:00,
2013-02-12 10:38:00,40.5,38.0,29.20,SSW,195,6.0,8.0,91,0.00,CLR,CLR,0.00,WeatherDisplay:10.37,2013-02-12 15:38:00,
2013-02-12 10:48:00,40.6,37.9,29.20,SSW,206,2.0,4.0,90,0.00,CLR,CLR,0.00,WeatherDisplay:10.37,2013-02-12 15:48:00,
2013-02-12 10:58:00,41.1,38.4,29.20,South,173,0.0,3.0,90,0.00,CLR,CLR,0.00,WeatherDisplay:10.37,2013-02-12 15:58:00,
2013-02-12 11:03:00,41.4,38.6,29.20,South,174,2.0,4.0,90,0.00,CLR,CLR,0.00,WeatherDisplay:10.37,2013-02-12 16:03:00,
2013-02-12 11:08:00,41.5,38.8,29.20,SSE,168,2.0,6.0,90,0.00,CLR,CLR,0.00,WeatherDisplay:10.37,2013-02-12 16:08:00,
2013-02-12 11:18:00,42.7,39.9,29.20,South,182,3.0,4.0,90,0.00,CLR,CLR,0.00,WeatherDisplay:10.37,2013-02-12 16:18:00,
2013-02-12 11:28:00,43.5,40.8,29.20,South,169,3.0,8.0,90,0.00,CLR,CLR,0.00,WeatherDisplay:10.37,2013-02-12 16:28:00,
2013-02-12 11:38:00,43.9,40.8,29.20,SSE,168,3.0,6.0,89,0.00,RA,RA,0.02,WeatherDisplay:10.37,2013-02-12 16:38:00,
2013-02-12 11:48:00,44.1,41.0,29.20,SSW,194,6.0,6.0,89,0.00,,,0.02,WeatherDisplay:10.37,2013-02-12 16:48:00,
2013-02-12 11:58:00,44.1,41.0,29.20,SSW,200,0.0,5.0,89,0.00,RA,RA,0.04,WeatherDisplay:10.37,2013-02-12 16:58:00,
2013-02-12 12:03:00,44.1,40.7,29.20,South,186,2.0,6.0,88,0.00,RA,RA,0.04,WeatherDisplay:10.37,2013-02-12 17:03:00,
2013-02-12 12:08:00,43.9,40.3,29.20,South,173,3.0,7.0,87,0.00,,,0.04,WeatherDisplay:10.37,2013-02-12 17:08:00,
2013-02-12 12:18:00,43.0,39.1,29.20,SSW,199,5.0,8.0,86,0.00,RA,RA,0.06,WeatherDisplay:10.37,2013-02-12 17:18:00,
2013-02-12 12:28:00,39.7,26.6,29.20,West,262,6.0,12.0,59,0.00,,,0.06,WeatherDisplay:10.37,2013-02-12 17:28:00,
2013-02-12 12:38:00,39.1,19.5,29.20,West,279,6.0,13.0,45,0.00,,,0.06,WeatherDisplay:10.37,2013-02-12 17:38:00,
2013-02-12 12:48:00,39.6,18.3,29.20,West,274,9.0,13.0,42,0.00,RA,RA,0.08,WeatherDisplay:10.37,2013-02-12 17:48:00,
2013-02-12 12:58:00,39.7,18.5,29.20,WNW,298,3.0,8.0,42,0.00,RA,RA,0.10,WeatherDisplay:10.37,2013-02-12 17:58:00,
2013-02-12 13:03:00,39.7,17.4,29.20,WNW,299,7.0,13.0,40,0.00,RA,RA,0.10,WeatherDisplay:10.37,2013-02-12 18:03:00,
2013-02-12 13:08:00,39.9,17.5,29.20,WNW,302,3.0,8.0,40,0.00,,,0.10,WeatherDisplay:10.37,2013-02-12 18:08:00,
2013-02-12 13:18:00,40.2,17.7,29.20,WNW,296,6.0,12.0,40,0.00,,,0.10,WeatherDisplay:10.37,2013-02-12 18:18:00,
2013-02-12 13:28:00,40.5,17.4,29.20,WNW,282,6.0,13.0,39,0.00,RA,RA,0.12,WeatherDisplay:10.37,2013-02-12 18:28:00,
2013-02-12 13:38:00,40.2,17.2,29.20,West,275,8.0,17.0,39,0.00,,,0.12,WeatherDisplay:10.37,2013-02-12 18:38:00,
2013-02-12 13:48:00,39.9,16.9,29.20,West,273,7.0,13.0,39,0.00,,,0.12,WeatherDisplay:10.37,2013-02-12 18:48:00,
2013-02-12 13:58:00,39.9,16.9,29.20,West,260,8.0,13.0,39,0.00,,,0.12,WeatherDisplay:10.37,2013-02-12 18:58:00,
2013-02-12 14:03:00,39.9,16.9,29.22,West,268,7.0,14.0,39,0.00,,,0.12,WeatherDisplay:10.37,2013-02-12 19:03:00,
2013-02-12 14:08:00,39.9,16.9,29.24,West,274,8.0,13.0,39,0.00,,,0.12,WeatherDisplay:10.37,2013-02-12 19:08:00,
2013-02-12 14:18:00,39.9,16.9,29.24,WSW,258,7.0,12.0,39,0.00,,,0.12,WeatherDisplay:10.37,2013-02-12 19:18:00,
2013-02-12 14:29:00,39.9,16.9,29.24,West,270,6.0,8.0,39,0.00,CLR,CLR,0.12,WeatherDisplay:10.37,2013-02-12 19:29:00,
2013-02-12 14:39:00,39.7,16.8,29.24,West,277,8.0,15.0,39,0.00,CLR,CLR,0.12,WeatherDisplay:10.37,2013-02-12 19:39:00,
2013-02-12 14:49:00,39.6,16.6,29.24,WNW,288,7.0,13.0,39,0.00,CLR,CLR,0.12,WeatherDisplay:10.37,2013-02-12 19:49:00,
2013-02-12 14:59:00,39.6,16.6,29.24,WNW,290,8.0,17.0,39,0.00,CLR,CLR,0.12,WeatherDisplay:10.37,2013-02-12 19:59:00,
2013-02-12 15:04:00,39.6,16.6,29.24,WNW,283,5.0,18.0,39,0.00,CLR,CLR,0.12,WeatherDisplay:10.37,2013-02-12 20:04:00,
2013-02-12 15:09:00,39.6,16.7,29.24,WNW,291,7.0,12.0,39,0.00,CLR,CLR,0.12,WeatherDisplay:10.37,2013-02-12 20:09:00,
2013-02-12 15:19:00,39.7,16.8,29.24,West,266,3.0,11.0,39,0.00,CLR,CLR,0.12,WeatherDisplay:10.37,2013-02-12 20:19:00,
2013-02-12 15:29:00,39.8,16.8,29.24,WNW,301,7.0,11.0,39,0.00,CLR,CLR,0.12,WeatherDisplay:10.37,2013-02-12 20:29:00,
2013-02-12 15:39:00,39.7,16.8,29.26,WNW,290,2.0,10.0,39,0.00,CLR,CLR,0.12,WeatherDisplay:10.37,2013-02-12 20:39:00,
2013-02-12 15:49:00,39.6,16.6,29.26,NW,314,7.0,12.0,39,0.00,CLR,CLR,0.12,WeatherDisplay:10.37,2013-02-12 20:49:00,
2013-02-12 15:59:00,39.6,16.6,29.26,WNW,299,3.0,6.0,39,0.00,CLR,CLR,0.12,WeatherDisplay:10.37,2013-02-12 20:59:00,
2013-02-12 16:04:00,39.6,16.6,29.26,WNW,299,8.0,13.0,39,0.00,CLR,CLR,0.12,WeatherDisplay:10.37,2013-02-12 21:04:00,
2013-02-12 16:09:00,39.4,16.4,29.26,WNW,287,5.0,6.0,39,0.00,CLR,CLR,0.12,WeatherDisplay:10.37,2013-02-12 21:09:00,
2013-02-12 16:19:00,39.0,16.1,29.26,NW,309,3.0,8.0,39,0.00,CLR,CLR,0.12,WeatherDisplay:10.37,2013-02-12 21:19:00,
2013-02-12 16:29:00,38.7,16.4,29.26,West,272,6.0,12.0,40,0.00,CLR,CLR,0.12,WeatherDisplay:10.37,2013-02-12 21:29:00,
2013-02-12 16:39:00,38.3,16.1,29.26,WNW,282,5.0,10.0,40,0.00,CLR,CLR,0.12,WeatherDisplay:10.37,2013-02-12 21:39:00,
2013-02-12 16:49:00,38.1,16.5,29.26,West,266,6.0,11.0,41,0.00,CLR,CLR,0.12,WeatherDisplay:10.37,2013-02-12 21:49:00,
2013-02-12 16:59:00,37.9,16.3,29.26,West,270,9.0,13.0,41,0.00,CLR,CLR,0.12,WeatherDisplay:10.37,2013-02-12 21:59:00,
2013-02-12 17:04:00,37.9,16.3,29.26,West,275,5.0,9.0,41,0.00,CLR,CLR,0.12,WeatherDisplay:10.37,2013-02-12 22:04:00,
2013-02-12 17:09:00,37.9,16.9,29.26,WNW,289,5.0,7.0,42,0.00,CLR,CLR,0.12,WeatherDisplay:10.37,2013-02-12 22:09:00,
2013-02-12 17:19:00,37.8,16.7,29.26,West,271,5.0,8.0,42,0.00,CLR,CLR,0.12,WeatherDisplay:10.37,2013-02-12 22:19:00,
2013-02-12 17:29:00,37.7,16.7,29.26,West,262,5.0,10.0,42,0.00,CLR,CLR,0.12,WeatherDisplay:10.37,2013-02-12 22:29:00,
2013-02-12 17:39:00,37.6,16.5,29.29,West,265,5.0,10.0,42,0.00,CLR,CLR,0.12,WeatherDisplay:10.37,2013-02-12 22:39:00,
2013-02-12 17:49:00,37.4,16.4,29.29,West,264,5.0,8.0,42,0.00,CLR,CLR,0.12,WeatherDisplay:10.37,2013-02-12 22:49:00,
2013-02-12 17:59:00,37.4,16.4,29.29,West,267,7.0,8.0,42,0.00,CLR,CLR,0.12,WeatherDisplay:10.37,2013-02-12 22:59:00,
2013-02-12 18:04:00,37.4,16.9,29.29,West,270,6.0,8.0,43,0.00,CLR,CLR,0.12,WeatherDisplay:10.37,2013-02-12 23:04:00,
2013-02-12 18:09:00,37.4,16.9,29.29,West,265,7.0,12.0,43,0.00,CLR,CLR,0.12,WeatherDisplay:10.37,2013-02-12 23:09:00,
2013-02-12 18:19:00,37.2,16.2,29.29,WNW,284,8.0,15.0,42,0.00,CLR,CLR,0.12,WeatherDisplay:10.37,2013-02-12 23:19:00,
2013-02-12 18:29:00,37.4,16.4,29.29,WNW,296,5.0,12.0,42,0.00,CLR,CLR,0.12,WeatherDisplay:10.37,2013-02-12 23:29:00,
2013-02-12 18:34:00,37.2,15.7,29.29,West,275,5.0,8.0,41,0.00,CLR,CLR,0.12,WeatherDisplay:10.37,2013-02-12 23:34:00,
2013-02-12 18:39:00,37.2,15.6,29.29,West,276,6.0,10.0,41,0.00,CLR,CLR,0.12,WeatherDisplay:10.37,2013-02-12 23:39:00,
2013-02-12 18:48:00,37.0,15.5,29.32,West,273,0.0,6.0,41,0.00,CLR,CLR,0.12,WeatherDisplay:10.37,2013-02-12 23:48:00,
2013-02-12 18:58:00,37.0,16.0,29.32,WSW,241,2.0,6.0,42,0.00,CLR,CLR,0.12,WeatherDisplay:10.37,2013-02-12 23:58:00,
2013-02-12 19:03:00,36.9,15.9,29.32,South,180,3.0,5.0,42,0.00,CLR,CLR,0.12,WeatherDisplay:10.37,2013-02-13 00:03:00,
2013-02-12 19:08:00,36.7,15.7,29.32,SW,217,3.0,11.0,42,0.00,CLR,CLR,0.12,WeatherDisplay:10.37,2013-02-13 00:08:00,
2013-02-12 19:18:00,36.9,15.9,29.32,West,259,3.0,6.0,42,0.00,CLR,CLR,0.12,WeatherDisplay:10.37,2013-02-13 00:18:00,
2013-02-12 19:28:00,36.9,15.3,29.32,West,277,6.0,8.0,41,0.00,CLR,CLR,0.12,WeatherDisplay:10.37,2013-02-13 00:28:00,
2013-02-12 19:38:00,37.0,15.5,29.32,West,279,8.0,13.0,41,0.00,CLR,CLR,0.12,WeatherDisplay:10.37,2013-02-13 00:38:00,
2013-02-12 19:48:00,36.9,15.9,29.32,West,264,7.0,11.0,42,0.00,CLR,CLR,0.12,WeatherDisplay:10.37,2013-02-13 00:48:00,
2013-02-12 19:58:00,36.7,15.7,29.32,West,275,7.0,9.0,42,0.00,CLR,CLR,0.12,WeatherDisplay:10.37,2013-02-13 00:58:00,
2013-02-12 20:03:00,36.7,15.7,29.32,West,279,6.0,9.0,42,0.00,CLR,CLR,0.12,WeatherDisplay:10.37,2013-02-13 01:03:00,
2013-02-12 20:08:00,36.7,15.7,29.32,West,266,7.0,9.0,42,0.00,CLR,CLR,0.12,WeatherDisplay:10.37,2013-02-13 01:08:00,
2013-02-12 20:18:00,36.7,15.7,29.34,West,277,6.0,8.0,42,0.00,CLR,CLR,0.12,WeatherDisplay:10.37,2013-02-13 01:18:00,
2013-02-12 20:28:00,36.5,15.6,29.35,WNW,297,2.0,6.0,42,0.00,CLR,CLR,0.12,WeatherDisplay:10.37,2013-02-13 01:28:00,
2013-02-12 20:38:00,36.1,15.2,29.35,SSW,199,2.0,5.0,42,0.00,CLR,CLR,0.12,WeatherDisplay:10.37,2013-02-13 01:38:00,
2013-02-12 20:48:00,36.1,15.8,29.35,NW,308,3.0,8.0,43,0.00,CLR,CLR,0.12,WeatherDisplay:10.37,2013-02-13 01:48:00,
2013-02-12 20:58:00,35.8,15.5,29.35,SSE,168,3.0,5.0,43,0.00,CLR,CLR,0.12,WeatherDisplay:10.37,2013-02-13 01:58:00,
2013-02-12 21:03:00,35.6,15.3,29.35,South,177,3.0,6.0,43,0.00,CLR,CLR,0.12,WeatherDisplay:10.37,2013-02-13 02:03:00,
2013-02-12 21:08:00,35.6,15.8,29.35,SW,221,6.0,9.0,44,0.00,CLR,CLR,0.12,WeatherDisplay:10.37,2013-02-13 02:08:00,
2013-02-12 21:18:00,36.0,15.6,29.38,West,262,6.0,8.0,43,0.00,CLR,CLR,0.12,WeatherDisplay:10.37,2013-02-13 02:18:00,
2013-02-12 21:28:00,36.1,15.8,29.38,WNW,289,5.0,13.0,43,0.00,CLR,CLR,0.12,WeatherDisplay:10.37,2013-02-13 02:28:00,
2013-02-12 21:38:00,36.1,15.8,29.38,West,269,6.0,9.0,43,0.00,CLR,CLR,0.12,WeatherDisplay:10.37,2013-02-13 02:38:00,
2013-02-12 21:48:00,36.0,15.6,29.38,WSW,238,5.0,8.0,43,0.00,CLR,CLR,0.12,WeatherDisplay:10.37,2013-02-13 02:48:00,
2013-02-12 21:58:00,35.5,15.2,29.38,East,88,2.0,4.0,43,0.00,CLR,CLR,0.12,WeatherDisplay:10.37,2013-02-13 02:58:00,
2013-02-12 22:03:00,35.2,15.5,29.41,ENE,65,2.0,4.0,44,0.00,CLR,CLR,0.12,WeatherDisplay:10.37,2013-02-13 03:03:00,
2013-02-12 22:08:00,35.1,15.3,29.41,East,83,0.0,3.0,44,0.00,CLR,CLR,0.12,WeatherDisplay:10.37,2013-02-13 03:08:00,
2013-02-12 22:18:00,34.9,16.2,29.41,SW,228,2.0,4.0,46,0.00,CLR,CLR,0.12,WeatherDisplay:10.37,2013-02-13 03:18:00,
2013-02-12 22:28:00,35.1,15.9,29.41,West,281,5.0,6.0,45,0.00,CLR,CLR,0.12,WeatherDisplay:10.37,2013-02-13 03:28:00,
2013-02-12 22:38:00,35.2,16.0,29.38,NNW,328,0.0,4.0,45,0.00,CLR,CLR,0.12,WeatherDisplay:10.37,2013-02-13 03:38:00,
2013-02-12 22:48:00,34.9,15.7,29.38,SE,130,0.0,3.0,45,0.00,CLR,CLR,0.12,WeatherDisplay:10.37,2013-02-13 03:48:00,
2013-02-12 22:58:00,34.3,15.7,29.38,SSW,198,3.0,6.0,46,0.00,CLR,CLR,0.12,WeatherDisplay:10.37,2013-02-13 03:58:00,
2013-02-12 23:03:00,34.3,16.2,29.38,SW,224,3.0,6.0,47,0.00,CLR,CLR,0.12,WeatherDisplay:10.37,2013-02-13 04:03:00,
2013-02-12 23:08:00,34.3,16.7,29.38,SW,233,3.0,6.0,48,0.00,CLR,CLR,0.12,WeatherDisplay:10.37,2013-02-13 04:08:00,
2013-02-12 23:18:00,34.5,16.8,29.38,WSW,239,1.0,4.0,48,0.00,CLR,CLR,0.12,WeatherDisplay:10.37,2013-02-13 04:18:00,
2013-02-12 23:28:00,34.3,17.1,29.38,West,276,0.0,0.0,49,0.00,CLR,CLR,0.12,WeatherDisplay:10.37,2013-02-13 04:28:00,
2013-02-12 23:38:00,34.2,16.5,29.38,NNW,331,0.0,4.0,48,0.00,CLR,CLR,0.12,WeatherDisplay:10.37,2013-02-13 04:38:00,
2013-02-12 23:48:00,34.2,17.0,29.38,NW,308,3.0,5.0,49,0.00,CLR,CLR,0.12,WeatherDisplay:10.37,2013-02-13 04:48:00,
2013-02-12 23:58:00,34.2,17.0,29.38,West,279,1.0,4.0,49,0.00,CLR,CLR,0.00,WeatherDisplay:10.37,2013-02-13 04:58:00,